createdAt,value
2024-04-12T03:45:55.631Z,10.40
2024-04-12T03:48:25.849Z,10.50
2024-04-12T03:51:01.920Z,10.60
2024-04-12T03:53:32.161Z,10.70
2024-04-12T03:55:59.311Z,10.50
2024-04-12T03:58:31.078Z,10.50
2024-04-12T04:00:58.150Z,10.40
2024-04-12T04:03:34.135Z,10.40
2024-04-12T04:06:12.884Z,10.40
2024-04-12T04:08:53.206Z,10.20
2024-04-12T04:11:20.421Z,10.10
2024-04-12T04:13:51.014Z,10.00
2024-04-12T04:16:18.175Z,10.00
2024-04-12T04:18:51.001Z,10.10
2024-04-12T04:21:18.440Z,10.10
2024-04-12T04:23:47.535Z,10.10
2024-04-12T04:26:14.793Z,10.00
2024-04-12T04:28:42.983Z,10.10
2024-04-12T04:31:10.092Z,10.30
2024-04-12T04:33:40.131Z,10.40
2024-04-12T04:36:10.647Z,10.50
2024-04-12T04:38:38.247Z,10.50
2024-04-12T04:41:07.813Z,10.50
2024-04-12T04:43:35.247Z,10.40
2024-04-12T04:46:23.372Z,10.40
2024-04-12T04:48:53.253Z,10.50
2024-04-12T04:51:20.926Z,10.40
2024-04-12T04:53:48.156Z,10.50
2024-04-12T04:56:25.361Z,10.50
2024-04-12T04:58:52.952Z,10.50
2024-04-12T05:01:20.152Z,10.30
2024-04-12T05:03:50.654Z,10.30
2024-04-12T05:06:25.617Z,10.40
2024-04-12T05:08:53.960Z,10.50
2024-04-12T05:11:21.485Z,10.60
2024-04-12T05:13:56.930Z,10.70
2024-04-12T05:16:24.411Z,10.90
2024-04-12T05:18:54.538Z,11.00
2024-04-12T05:21:21.733Z,11.00
2024-04-12T05:23:54.944Z,10.50
2024-04-12T05:26:24.790Z,10.50
2024-04-12T05:28:52.047Z,10.60
2024-04-12T05:31:21.228Z,10.60
2024-04-12T05:33:50.852Z,10.80
2024-04-12T05:36:18.124Z,10.80
2024-04-12T05:38:46.988Z,10.70
2024-04-12T05:41:16.474Z,10.20
2024-04-12T05:43:43.539Z,10.30
2024-04-12T05:46:10.956Z,10.40
2024-04-12T05:48:38.616Z,10.60
2024-04-12T05:51:05.929Z,10.70
2024-04-12T05:53:34.589Z,10.40
2024-04-12T05:56:21.627Z,10.20
2024-04-12T05:58:52.243Z,10.20
2024-04-12T06:01:19.686Z,10.40
2024-04-12T06:03:53.701Z,10.50
2024-04-12T06:06:23.369Z,10.40
2024-04-12T06:08:50.795Z,10.50
2024-04-12T06:11:18.959Z,10.40
2024-04-12T06:13:53.432Z,10.40
2024-04-12T06:16:20.706Z,10.30
2024-04-12T06:18:47.854Z,10.40
2024-04-12T06:21:14.962Z,10.60
2024-04-12T06:23:42.068Z,10.90
2024-04-12T06:26:10.172Z,11.10
2024-04-12T06:28:39.185Z,11.30
2024-04-12T06:31:07.434Z,11.40
2024-04-12T06:33:34.924Z,11.40
2024-04-12T06:36:13.138Z,11.50
2024-04-12T06:38:40.634Z,11.30
2024-04-12T06:41:11.841Z,11.30
2024-04-12T06:43:39.167Z,11.20
2024-04-12T06:46:28.624Z,11.10
2024-04-12T06:49:08.809Z,11.10
2024-04-12T06:51:36.463Z,11.00
2024-04-12T06:54:05.230Z,11.00
2024-04-12T06:56:34.960Z,11.20
2024-04-12T06:59:08.490Z,11.20
2024-04-12T07:01:35.721Z,11.30
2024-04-12T07:04:06.957Z,11.10
2024-04-12T07:06:34.292Z,11.00
2024-04-12T07:09:01.474Z,11.00
2024-04-12T07:11:28.577Z,11.20
2024-04-12T07:13:55.687Z,11.20
2024-04-12T07:16:25.134Z,11.30
2024-04-12T07:18:52.446Z,11.30
2024-04-12T07:21:24.349Z,11.60
2024-04-12T07:23:52.246Z,11.70
2024-04-12T07:26:26.643Z,11.80
2024-04-12T07:29:01.034Z,11.80
2024-04-12T07:31:31.672Z,12.10
2024-04-12T07:34:03.127Z,12.00
2024-04-12T07:36:33.547Z,12.00
2024-04-12T07:39:09.342Z,12.20
2024-04-12T07:41:44.308Z,12.10
2024-04-12T07:44:13.682Z,12.10
2024-04-12T07:46:50.151Z,12.30
2024-04-12T07:49:17.395Z,12.40
2024-04-12T07:51:46.529Z,12.50
2024-04-12T07:54:14.652Z,12.60
2024-04-12T07:56:44.618Z,12.70
2024-04-12T07:59:15.531Z,12.70
2024-04-12T08:01:49.083Z,12.70
2024-04-12T08:04:27.235Z,12.80
2024-04-12T08:06:58.128Z,12.80
2024-04-12T08:09:45.806Z,12.70
2024-04-12T08:12:16.952Z,12.80
2024-04-12T08:14:54.864Z,12.70
2024-04-12T08:17:26.877Z,12.70
2024-04-12T08:19:58.402Z,12.70
2024-04-12T08:22:27.352Z,12.80
2024-04-12T08:24:55.432Z,13.00
2024-04-12T08:27:27.082Z,12.80
2024-04-12T08:29:56.786Z,12.80
2024-04-12T08:32:32.973Z,12.80
2024-04-12T08:35:07.727Z,12.80
2024-04-12T08:37:39.569Z,13.00
2024-04-12T08:40:10.702Z,13.10
2024-04-12T08:42:38.369Z,13.20
2024-04-12T08:45:15.925Z,13.30
2024-04-12T08:47:57.609Z,13.50
2024-04-12T08:50:25.710Z,13.70
2024-04-12T08:52:59.044Z,13.80
2024-04-12T08:55:26.699Z,13.70
2024-04-12T08:57:58.160Z,13.70
2024-04-12T09:00:30.310Z,13.80
2024-04-12T09:03:03.950Z,13.90
2024-04-12T09:05:36.968Z,13.90
2024-04-12T09:08:08.129Z,13.70
2024-04-12T09:10:36.625Z,13.80
2024-04-12T09:13:09.025Z,13.90
2024-04-12T09:15:43.476Z,14.00
2024-04-12T09:18:21.370Z,14.00
2024-04-12T09:20:54.359Z,14.00
2024-04-12T09:23:34.183Z,14.00
2024-04-12T09:26:21.553Z,14.20
2024-04-12T09:28:49.044Z,14.30
2024-04-12T09:31:35.140Z,14.40
2024-04-12T09:34:24.092Z,14.40
2024-04-12T09:36:57.546Z,14.50
2024-04-12T09:39:25.213Z,14.60
2024-04-12T09:42:04.163Z,14.70
2024-04-12T09:44:49.826Z,14.70
2024-04-12T09:47:17.588Z,14.80
2024-04-12T09:50:03.844Z,14.90
2024-04-12T09:52:50.041Z,15.00
2024-04-12T09:55:37.961Z,15.10
2024-04-12T09:58:24.206Z,15.20
2024-04-12T10:01:12.584Z,14.90
2024-04-12T10:03:59.270Z,15.10
2024-04-12T10:06:48.997Z,14.90
2024-04-12T10:09:36.237Z,15.10
2024-04-12T10:12:22.982Z,15.20
2024-04-12T10:15:10.555Z,15.30
2024-04-12T10:18:01.206Z,15.30
2024-04-12T10:20:56.750Z,15.40
2024-04-12T10:23:48.456Z,15.50
2024-04-12T10:26:34.484Z,15.40
2024-04-12T10:29:23.253Z,15.10
2024-04-12T10:32:08.844Z,15.30
2024-04-12T10:34:54.307Z,15.40
2024-04-12T10:37:30.960Z,15.40
2024-04-12T10:39:58.963Z,15.30
2024-04-12T10:42:29.427Z,15.50
2024-04-12T10:45:01.372Z,15.60
2024-04-12T10:47:29.493Z,15.70
2024-04-12T10:49:57.857Z,16.00
2024-04-12T10:52:31.439Z,15.90
2024-04-12T10:54:59.596Z,15.90
2024-04-12T10:57:30.372Z,16.00
2024-04-12T11:00:02.020Z,16.00
2024-04-12T11:02:29.340Z,16.00
2024-04-12T11:05:15.157Z,16.10
2024-04-12T11:07:42.274Z,16.20
2024-04-12T11:10:23.959Z,16.20
2024-04-12T11:13:10.061Z,16.20
2024-04-12T11:15:37.938Z,16.20
2024-04-12T11:18:30.376Z,16.30
2024-04-12T11:21:19.678Z,16.40
2024-04-12T11:24:06.366Z,16.50
2024-04-12T11:26:52.021Z,16.40
2024-04-12T11:29:38.262Z,16.50
2024-04-12T11:32:13.843Z,16.60
2024-04-12T11:34:47.317Z,16.40
2024-04-12T11:37:16.708Z,16.50
2024-04-12T11:39:44.034Z,16.40
2024-04-12T11:42:19.704Z,16.40
2024-04-12T11:44:54.638Z,16.20
2024-04-12T11:47:24.663Z,16.50
2024-04-12T11:49:58.787Z,16.80
2024-04-12T11:52:27.098Z,16.70
2024-04-12T11:54:54.375Z,16.90
2024-04-12T11:57:23.932Z,16.90
2024-04-12T12:00:02.076Z,17.00
2024-04-12T12:02:30.252Z,17.10
2024-04-12T12:04:57.720Z,17.20
2024-04-12T12:07:27.765Z,17.30
2024-04-12T12:09:54.984Z,17.30
2024-04-12T12:12:28.434Z,17.30
2024-04-12T12:14:55.975Z,17.30
2024-04-12T12:17:23.103Z,17.40
2024-04-12T12:19:54.025Z,17.50
2024-04-12T12:22:22.848Z,17.80
2024-04-12T12:24:50.163Z,17.80
2024-04-12T12:27:20.812Z,17.60
2024-04-12T12:29:50.425Z,17.70
2024-04-12T12:32:17.638Z,17.80
2024-04-12T12:34:44.960Z,17.80
2024-04-12T12:37:12.057Z,17.90
2024-04-12T12:39:39.178Z,17.90
2024-04-12T12:42:06.726Z,18.00
2024-04-12T12:44:33.830Z,17.90
2024-04-12T12:47:01.189Z,17.90
2024-04-12T12:49:28.329Z,17.80
2024-04-12T12:51:55.542Z,17.90
2024-04-12T12:54:22.688Z,17.80
2024-04-12T12:56:49.808Z,17.90
2024-04-12T12:59:17.553Z,17.80
2024-04-12T13:01:48.183Z,18.00
2024-04-12T13:04:15.296Z,18.00
2024-04-12T13:06:44.757Z,18.00
2024-04-12T13:09:18.222Z,18.00
2024-04-12T13:11:45.367Z,18.10
2024-04-12T13:14:12.512Z,18.10
2024-04-12T13:16:43.250Z,18.20
2024-04-12T13:19:17.066Z,18.30
2024-04-12T13:21:47.030Z,18.30
2024-04-12T13:24:15.805Z,18.40
2024-04-12T13:26:51.504Z,18.30
2024-04-12T13:29:19.225Z,18.30
2024-04-12T13:31:51.469Z,18.40
2024-04-12T13:34:19.582Z,18.40
2024-04-12T13:36:48.777Z,18.40
2024-04-12T13:39:16.434Z,18.40
2024-04-12T13:41:46.283Z,18.40
2024-04-12T13:44:26.429Z,18.50
2024-04-12T13:47:12.898Z,18.50
2024-04-12T13:49:58.488Z,18.60
2024-04-12T13:52:26.387Z,18.60
2024-04-12T13:54:57.182Z,18.50
2024-04-12T13:57:25.643Z,18.50
2024-04-12T13:59:53.317Z,18.40
2024-04-12T14:02:20.459Z,18.60
2024-04-12T14:04:47.661Z,18.60
2024-04-12T14:07:16.240Z,18.50
2024-04-12T14:09:44.055Z,18.70
2024-04-12T14:12:11.342Z,18.80
2024-04-12T14:14:38.563Z,18.80
2024-04-12T14:17:06.600Z,18.90
2024-04-12T14:19:33.837Z,18.80
2024-04-12T14:22:00.986Z,18.70
2024-04-12T14:24:47.654Z,18.50
2024-04-12T14:27:14.855Z,18.50
2024-04-12T14:29:42.078Z,18.80
2024-04-12T14:32:12.106Z,18.90
2024-04-12T14:34:43.714Z,18.90
2024-04-12T14:37:15.201Z,19.00
2024-04-12T14:39:43.919Z,19.10
2024-04-12T14:42:16.621Z,19.10
2024-04-12T14:44:45.208Z,19.10
2024-04-12T14:47:12.488Z,19.20
2024-04-12T14:49:39.683Z,19.20
2024-04-12T14:52:12.516Z,19.10
2024-04-12T14:54:42.986Z,19.10
2024-04-12T14:57:10.372Z,19.20
2024-04-12T14:59:37.853Z,19.20
2024-04-12T15:02:07.216Z,19.30
2024-04-12T15:04:53.054Z,19.30
2024-04-12T15:07:38.711Z,19.50
2024-04-12T15:10:24.893Z,19.50
2024-04-12T15:13:10.583Z,19.40
2024-04-12T15:15:56.272Z,19.40
2024-04-12T15:18:42.047Z,19.50
2024-04-12T15:21:27.711Z,19.50
2024-04-12T15:24:13.594Z,19.50
2024-04-12T15:26:59.158Z,19.50
2024-04-12T15:29:44.789Z,19.60
2024-04-12T15:32:30.994Z,19.70
2024-04-12T15:35:16.883Z,19.80
2024-04-12T15:38:02.530Z,19.70
2024-04-12T15:40:48.289Z,19.70
2024-04-12T15:43:33.801Z,19.80
2024-04-12T15:46:19.368Z,19.80
2024-04-12T15:48:46.923Z,19.80
2024-04-12T15:51:17.980Z,19.80
2024-04-12T15:53:46.824Z,19.80
2024-04-12T15:56:15.014Z,19.70
2024-04-12T15:59:02.141Z,19.70
2024-04-12T16:01:47.769Z,19.80
2024-04-12T16:04:33.431Z,19.80
2024-04-12T16:07:19.097Z,19.80
2024-04-12T16:10:04.705Z,19.80
2024-04-12T16:12:32.114Z,19.80
2024-04-12T16:15:00.467Z,19.80
2024-04-12T16:17:29.601Z,19.80
2024-04-12T16:19:56.904Z,19.80
2024-04-12T16:22:26.842Z,19.80
2024-04-12T16:24:55.422Z,19.90
2024-04-12T16:27:22.678Z,19.90
2024-04-12T16:29:49.926Z,20.10
2024-04-12T16:32:19.234Z,20.00
2024-04-12T16:34:47.885Z,20.10
2024-04-12T16:37:14.985Z,20.10
2024-04-12T16:39:42.092Z,20.10
2024-04-12T16:42:09.159Z,20.20
2024-04-12T16:44:36.466Z,20.20
2024-04-12T16:47:03.594Z,20.10
2024-04-12T16:49:30.704Z,20.00
2024-04-12T16:51:57.799Z,20.00
2024-04-12T16:54:25.099Z,20.00
2024-04-12T16:56:52.294Z,20.10
2024-04-12T16:59:19.639Z,20.10
2024-04-12T17:01:46.834Z,20.00
2024-04-12T17:04:14.081Z,20.00
2024-04-12T17:06:41.929Z,19.90
2024-04-12T17:09:11.084Z,20.00
2024-04-12T17:11:39.216Z,20.10
2024-04-12T17:14:06.727Z,20.10
2024-04-12T17:16:34.144Z,20.10
2024-04-12T17:19:01.459Z,20.00
2024-04-12T17:21:28.761Z,20.00
2024-04-12T17:23:55.867Z,20.00
2024-04-12T17:26:23.044Z,20.10
2024-04-12T17:28:50.161Z,20.00
2024-04-12T17:31:17.282Z,20.00
2024-04-12T17:33:44.471Z,20.00
2024-04-12T17:36:13.507Z,20.00
2024-04-12T17:38:40.712Z,19.90
2024-04-12T17:41:08.447Z,19.80
2024-04-12T17:43:35.525Z,19.80
2024-04-12T17:46:02.808Z,19.90
2024-04-12T17:48:30.092Z,19.70
2024-04-12T17:50:57.815Z,19.70
2024-04-12T17:53:25.446Z,19.70
2024-04-12T17:55:57.541Z,19.60
2024-04-12T17:58:24.802Z,19.60
2024-04-12T18:01:01.343Z,19.50
2024-04-12T18:03:28.562Z,19.50
2024-04-12T18:05:55.689Z,19.40
2024-04-12T18:08:27.313Z,19.30
2024-04-12T18:11:00.520Z,19.30
2024-04-12T18:13:28.449Z,19.30
2024-04-12T18:15:58.844Z,19.20
2024-04-12T18:18:26.588Z,19.20
2024-04-12T18:20:54.170Z,19.10
2024-04-12T18:23:21.955Z,19.10
2024-04-12T18:25:57.938Z,19.00
2024-04-12T18:28:28.399Z,18.90
2024-04-12T18:30:55.718Z,18.80
2024-04-12T18:33:23.264Z,18.70
2024-04-12T18:36:03.290Z,18.70
2024-04-12T18:38:49.422Z,18.70
2024-04-12T18:41:35.099Z,18.70
2024-04-12T18:44:20.860Z,18.70
2024-04-12T18:46:47.932Z,18.60
2024-04-12T18:49:15.204Z,18.60
2024-04-12T18:51:42.473Z,18.50
2024-04-12T18:54:09.754Z,18.60
2024-04-12T18:56:37.472Z,18.50
2024-04-12T18:59:04.904Z,18.50
2024-04-12T19:01:31.984Z,18.40
2024-04-12T19:04:00.624Z,18.40
2024-04-12T19:06:27.890Z,18.40
2024-04-12T19:08:55.102Z,18.30
2024-04-12T19:11:22.598Z,18.30
2024-04-12T19:13:50.051Z,18.30
2024-04-12T19:16:17.117Z,18.30
2024-04-12T19:18:44.526Z,18.20
2024-04-12T19:21:11.711Z,18.10
2024-04-12T19:23:39.235Z,18.10
2024-04-12T19:26:06.604Z,18.00
2024-04-12T19:28:33.891Z,18.00
2024-04-12T19:31:04.681Z,18.00
2024-04-12T19:33:32.861Z,18.00
2024-04-12T19:36:04.090Z,18.00
2024-04-12T19:38:31.849Z,17.90
2024-04-12T19:40:59.713Z,17.90
2024-04-12T19:43:27.034Z,17.80
2024-04-12T19:45:55.208Z,17.80
2024-04-12T19:48:22.747Z,17.80
2024-04-12T19:50:49.926Z,17.70
2024-04-12T19:53:17.204Z,17.60
2024-04-12T19:55:54.771Z,17.40
2024-04-12T19:58:22.194Z,17.30
2024-04-12T20:00:49.411Z,17.30
2024-04-12T20:03:17.010Z,17.30
2024-04-12T20:05:47.369Z,17.40
2024-04-12T20:08:14.517Z,17.40
2024-04-12T20:10:41.564Z,17.40
2024-04-12T20:13:08.860Z,17.40
2024-04-12T20:15:36.000Z,17.40
2024-04-12T20:18:03.936Z,17.40
2024-04-12T20:20:31.275Z,17.40
2024-04-12T20:22:58.864Z,17.30
2024-04-12T20:25:28.873Z,17.30
2024-04-12T20:27:55.980Z,17.20
2024-04-12T20:30:43.023Z,17.10
2024-04-12T20:33:10.984Z,17.20
2024-04-12T20:35:48.794Z,17.10
2024-04-12T20:38:15.877Z,17.10
2024-04-12T20:40:42.978Z,17.00
2024-04-12T20:43:10.099Z,16.90
2024-04-12T20:45:37.351Z,16.80
2024-04-12T20:48:06.156Z,16.70
2024-04-12T20:50:35.132Z,16.70
2024-04-12T20:53:02.227Z,16.70
2024-04-12T20:55:29.303Z,16.60
2024-04-12T20:57:56.374Z,16.50
2024-04-12T21:00:23.454Z,16.50
2024-04-12T21:02:52.578Z,16.50
2024-04-12T21:05:19.720Z,16.50
2024-04-12T21:07:46.822Z,16.50
2024-04-12T21:10:13.882Z,16.40
2024-04-12T21:12:40.983Z,16.30
2024-04-12T21:15:08.423Z,16.20
2024-04-12T21:17:38.437Z,16.20
2024-04-12T21:20:05.834Z,16.20
2024-04-12T21:22:32.901Z,16.20
2024-04-12T21:24:59.956Z,16.20
2024-04-12T21:27:27.543Z,16.10
2024-04-12T21:29:54.956Z,16.00
2024-04-12T21:32:23.511Z,16.10
2024-04-12T21:34:50.603Z,15.90
2024-04-12T21:37:17.720Z,15.80
2024-04-12T21:39:44.818Z,15.60
2024-04-12T21:42:12.928Z,15.60
2024-04-12T21:44:40.321Z,15.70
2024-04-12T21:47:09.025Z,15.80
2024-04-12T21:49:38.812Z,15.80
2024-04-12T21:52:07.531Z,15.90
2024-04-12T21:54:34.608Z,15.90
2024-04-12T21:57:02.932Z,15.80
2024-04-12T21:59:30.000Z,15.70
2024-04-12T22:01:57.067Z,15.70
2024-04-12T22:04:25.372Z,15.80
2024-04-12T22:06:52.543Z,15.80
2024-04-12T22:09:19.664Z,15.50
2024-04-12T22:11:46.784Z,15.50
2024-04-12T22:14:13.930Z,15.50
2024-04-12T22:16:41.050Z,15.50
2024-04-12T22:19:08.339Z,15.60
2024-04-12T22:21:35.486Z,15.60
2024-04-12T22:24:02.633Z,15.50
2024-04-12T22:26:30.922Z,15.50
2024-04-12T22:28:57.977Z,15.50
2024-04-12T22:31:26.533Z,15.50
2024-04-12T22:33:54.519Z,15.50
2024-04-12T22:36:23.382Z,15.50
2024-04-12T22:38:51.253Z,15.40
2024-04-12T22:41:18.793Z,15.30
2024-04-12T22:43:46.369Z,15.30
2024-04-12T22:46:15.367Z,15.30
2024-04-12T22:48:44.495Z,15.20
2024-04-12T22:51:21.430Z,15.30
2024-04-12T22:53:48.528Z,15.30
2024-04-12T22:56:15.581Z,15.30
2024-04-12T22:58:42.667Z,15.20
2024-04-12T23:01:09.742Z,15.20
2024-04-12T23:03:37.189Z,15.20
2024-04-12T23:06:04.759Z,15.10
2024-04-12T23:08:31.845Z,15.00
2024-04-12T23:10:58.970Z,15.00
2024-04-12T23:13:26.103Z,15.00
2024-04-12T23:15:53.210Z,15.00
2024-04-12T23:18:20.327Z,14.90
2024-04-12T23:20:54.067Z,14.90
2024-04-12T23:23:21.341Z,14.80
2024-04-12T23:25:48.430Z,14.80
2024-04-12T23:28:16.441Z,14.80
